sensor_id;sensor_type;location;lat;lon;timestamp;P1;durP1;ratioP1;P2;durP2;ratioP2
54937;SDS011;52756;52.826;6.214;2023-05-28T00:00:09;13.82;;;5.93;;
54937;SDS011;52756;52.826;6.214;2023-05-28T00:02:36;14.10;;;5.72;;
54937;SDS011;52756;52.826;6.214;2023-05-28T00:05:03;15.73;;;5.97;;
54937;SDS011;52756;52.826;6.214;2023-05-28T00:07:29;14.80;;;5.90;;
54937;SDS011;52756;52.826;6.214;2023-05-28T00:09:56;15.27;;;6.68;;
54937;SDS011;52756;52.826;6.214;2023-05-28T00:12:22;13.10;;;6.10;;
54937;SDS011;52756;52.826;6.214;2023-05-28T00:14:48;12.70;;;5.70;;
54937;SDS011;52756;52.826;6.214;2023-05-28T00:17:14;14.32;;;5.45;;
54937;SDS011;52756;52.826;6.214;2023-05-28T00:19:40;13.02;;;5.72;;
54937;SDS011;52756;52.826;6.214;2023-05-28T00:22:07;16.08;;;5.28;;
54937;SDS011;52756;52.826;6.214;2023-05-28T00:24:32;12.52;;;5.50;;
54937;SDS011;52756;52.826;6.214;2023-05-28T00:26:58;9.77;;;4.90;;
54937;SDS011;52756;52.826;6.214;2023-05-28T00:29:24;11.57;;;5.15;;
54937;SDS011;52756;52.826;6.214;2023-05-28T00:31:52;10.13;;;4.75;;
54937;SDS011;52756;52.826;6.214;2023-05-28T00:34:24;9.57;;;4.85;;
54937;SDS011;52756;52.826;6.214;2023-05-28T00:36:51;13.50;;;5.68;;
54937;SDS011;52756;52.826;6.214;2023-05-28T00:39:18;13.85;;;5.35;;
54937;SDS011;52756;52.826;6.214;2023-05-28T00:41:44;12.45;;;5.78;;
54937;SDS011;52756;52.826;6.214;2023-05-28T00:44:10;12.63;;;5.40;;
54937;SDS011;52756;52.826;6.214;2023-05-28T00:46:37;15.10;;;6.07;;
54937;SDS011;52756;52.826;6.214;2023-05-28T00:49:05;17.23;;;5.57;;
54937;SDS011;52756;52.826;6.214;2023-05-28T00:51:31;12.55;;;6.05;;
54937;SDS011;52756;52.826;6.214;2023-05-28T00:53:58;14.88;;;5.75;;
54937;SDS011;52756;52.826;6.214;2023-05-28T00:56:24;10.40;;;5.32;;
54937;SDS011;52756;52.826;6.214;2023-05-28T00:58:51;11.23;;;4.80;;
54937;SDS011;52756;52.826;6.214;2023-05-28T01:01:17;9.23;;;5.10;;
54937;SDS011;52756;52.826;6.214;2023-05-28T01:03:43;12.02;;;5.22;;
54937;SDS011;52756;52.826;6.214;2023-05-28T01:06:10;10.00;;;4.35;;
54937;SDS011;52756;52.826;6.214;2023-05-28T01:08:38;9.48;;;5.03;;
54937;SDS011;52756;52.826;6.214;2023-05-28T01:11:10;15.05;;;5.75;;
54937;SDS011;52756;52.826;6.214;2023-05-28T01:13:38;11.80;;;5.40;;
54937;SDS011;52756;52.826;6.214;2023-05-28T01:16:05;14.30;;;6.38;;
54937;SDS011;52756;52.826;6.214;2023-05-28T01:18:31;13.00;;;5.88;;
54937;SDS011;52756;52.826;6.214;2023-05-28T01:21:01;12.48;;;4.43;;
54937;SDS011;52756;52.826;6.214;2023-05-28T01:23:28;12.45;;;5.63;;
54937;SDS011;52756;52.826;6.214;2023-05-28T01:25:54;14.63;;;5.25;;
54937;SDS011;52756;52.826;6.214;2023-05-28T01:28:24;12.45;;;5.47;;
54937;SDS011;52756;52.826;6.214;2023-05-28T01:30:50;11.15;;;5.78;;
54937;SDS011;52756;52.826;6.214;2023-05-28T01:33:17;14.27;;;6.43;;
54937;SDS011;52756;52.826;6.214;2023-05-28T01:35:46;10.18;;;5.45;;
54937;SDS011;52756;52.826;6.214;2023-05-28T01:38:12;12.40;;;5.20;;
54937;SDS011;52756;52.826;6.214;2023-05-28T01:40:44;15.25;;;6.05;;
54937;SDS011;52756;52.826;6.214;2023-05-28T01:43:11;13.05;;;5.20;;
54937;SDS011;52756;52.826;6.214;2023-05-28T01:45:38;9.90;;;5.13;;
54937;SDS011;52756;52.826;6.214;2023-05-28T01:48:04;10.93;;;6.20;;
54937;SDS011;52756;52.826;6.214;2023-05-28T01:50:31;13.23;;;4.90;;
54937;SDS011;52756;52.826;6.214;2023-05-28T01:52:58;15.73;;;5.88;;
54937;SDS011;52756;52.826;6.214;2023-05-28T01:55:24;12.18;;;5.38;;
54937;SDS011;52756;52.826;6.214;2023-05-28T01:57:50;13.88;;;5.25;;
54937;SDS011;52756;52.826;6.214;2023-05-28T02:00:16;12.65;;;5.97;;
54937;SDS011;52756;52.826;6.214;2023-05-28T02:02:43;12.35;;;5.30;;
54937;SDS011;52756;52.826;6.214;2023-05-28T02:05:09;9.88;;;5.43;;
54937;SDS011;52756;52.826;6.214;2023-05-28T02:07:35;15.43;;;5.05;;
54937;SDS011;52756;52.826;6.214;2023-05-28T02:10:00;11.48;;;5.35;;
54937;SDS011;52756;52.826;6.214;2023-05-28T02:12:26;9.57;;;4.93;;
54937;SDS011;52756;52.826;6.214;2023-05-28T02:14:53;12.07;;;5.50;;
54937;SDS011;52756;52.826;6.214;2023-05-28T02:17:19;13.45;;;5.25;;
54937;SDS011;52756;52.826;6.214;2023-05-28T02:19:45;11.30;;;5.43;;
54937;SDS011;52756;52.826;6.214;2023-05-28T02:22:11;14.27;;;6.13;;
54937;SDS011;52756;52.826;6.214;2023-05-28T02:24:40;15.80;;;5.35;;
54937;SDS011;52756;52.826;6.214;2023-05-28T02:27:06;18.45;;;6.40;;
54937;SDS011;52756;52.826;6.214;2023-05-28T02:29:32;12.70;;;5.45;;
54937;SDS011;52756;52.826;6.214;2023-05-28T02:31:59;13.23;;;5.65;;
54937;SDS011;52756;52.826;6.214;2023-05-28T02:34:26;12.35;;;5.55;;
54937;SDS011;52756;52.826;6.214;2023-05-28T02:36:53;14.68;;;5.68;;
54937;SDS011;52756;52.826;6.214;2023-05-28T02:39:21;12.82;;;6.32;;
54937;SDS011;52756;52.826;6.214;2023-05-28T02:41:49;15.10;;;6.18;;
54937;SDS011;52756;52.826;6.214;2023-05-28T02:44:15;13.55;;;5.65;;
54937;SDS011;52756;52.826;6.214;2023-05-28T02:46:42;16.13;;;6.07;;
54937;SDS011;52756;52.826;6.214;2023-05-28T02:49:08;14.50;;;5.78;;
54937;SDS011;52756;52.826;6.214;2023-05-28T02:51:33;13.15;;;6.18;;
54937;SDS011;52756;52.826;6.214;2023-05-28T02:54:00;17.23;;;6.07;;
54937;SDS011;52756;52.826;6.214;2023-05-28T02:56:25;14.93;;;5.18;;
54937;SDS011;52756;52.826;6.214;2023-05-28T02:58:51;15.35;;;5.82;;
54937;SDS011;52756;52.826;6.214;2023-05-28T03:01:18;9.75;;;5.05;;
54937;SDS011;52756;52.826;6.214;2023-05-28T03:03:43;10.65;;;5.68;;
54937;SDS011;52756;52.826;6.214;2023-05-28T03:06:09;10.85;;;5.38;;
54937;SDS011;52756;52.826;6.214;2023-05-28T03:08:36;14.38;;;6.20;;
54937;SDS011;52756;52.826;6.214;2023-05-28T03:11:01;12.55;;;5.65;;
54937;SDS011;52756;52.826;6.214;2023-05-28T03:13:27;11.27;;;5.38;;
54937;SDS011;52756;52.826;6.214;2023-05-28T03:15:53;11.82;;;5.30;;
54937;SDS011;52756;52.826;6.214;2023-05-28T03:18:18;12.75;;;5.22;;
54937;SDS011;52756;52.826;6.214;2023-05-28T03:20:44;10.48;;;5.05;;
54937;SDS011;52756;52.826;6.214;2023-05-28T03:23:10;13.18;;;6.18;;
54937;SDS011;52756;52.826;6.214;2023-05-28T03:25:35;8.80;;;5.22;;
54937;SDS011;52756;52.826;6.214;2023-05-28T03:28:01;16.23;;;6.68;;
54937;SDS011;52756;52.826;6.214;2023-05-28T03:30:27;11.48;;;5.07;;
54937;SDS011;52756;52.826;6.214;2023-05-28T03:32:52;13.73;;;6.05;;
54937;SDS011;52756;52.826;6.214;2023-05-28T03:35:18;13.73;;;5.55;;
54937;SDS011;52756;52.826;6.214;2023-05-28T03:37:44;9.68;;;5.68;;
54937;SDS011;52756;52.826;6.214;2023-05-28T03:40:10;13.57;;;5.43;;
54937;SDS011;52756;52.826;6.214;2023-05-28T03:42:37;11.23;;;5.00;;
54937;SDS011;52756;52.826;6.214;2023-05-28T03:45:03;12.57;;;5.30;;
54937;SDS011;52756;52.826;6.214;2023-05-28T03:47:30;11.05;;;5.70;;
54937;SDS011;52756;52.826;6.214;2023-05-28T03:49:57;11.27;;;5.25;;
54937;SDS011;52756;52.826;6.214;2023-05-28T03:52:24;11.50;;;5.00;;
54937;SDS011;52756;52.826;6.214;2023-05-28T03:54:50;11.15;;;4.70;;
54937;SDS011;52756;52.826;6.214;2023-05-28T03:57:16;10.50;;;5.65;;
54937;SDS011;52756;52.826;6.214;2023-05-28T03:59:42;13.82;;;5.85;;
54937;SDS011;52756;52.826;6.214;2023-05-28T04:02:07;14.13;;;4.97;;
54937;SDS011;52756;52.826;6.214;2023-05-28T04:04:33;10.73;;;5.25;;
54937;SDS011;52756;52.826;6.214;2023-05-28T04:06:59;11.50;;;5.47;;
54937;SDS011;52756;52.826;6.214;2023-05-28T04:09:25;11.63;;;5.47;;
54937;SDS011;52756;52.826;6.214;2023-05-28T04:11:52;13.05;;;4.90;;
54937;SDS011;52756;52.826;6.214;2023-05-28T04:14:18;15.13;;;6.18;;
54937;SDS011;52756;52.826;6.214;2023-05-28T04:16:44;10.90;;;5.85;;
54937;SDS011;52756;52.826;6.214;2023-05-28T04:19:10;12.63;;;6.00;;
54937;SDS011;52756;52.826;6.214;2023-05-28T04:21:35;12.27;;;5.80;;
54937;SDS011;52756;52.826;6.214;2023-05-28T04:24:02;13.65;;;5.45;;
54937;SDS011;52756;52.826;6.214;2023-05-28T04:26:28;9.85;;;5.20;;
54937;SDS011;52756;52.826;6.214;2023-05-28T04:28:54;16.92;;;6.15;;
54937;SDS011;52756;52.826;6.214;2023-05-28T04:31:20;13.18;;;6.20;;
54937;SDS011;52756;52.826;6.214;2023-05-28T04:33:46;14.20;;;6.10;;
54937;SDS011;52756;52.826;6.214;2023-05-28T04:36:12;13.95;;;6.38;;
54937;SDS011;52756;52.826;6.214;2023-05-28T04:38:41;13.30;;;5.82;;
54937;SDS011;52756;52.826;6.214;2023-05-28T04:41:06;14.88;;;6.25;;
54937;SDS011;52756;52.826;6.214;2023-05-28T04:43:32;12.13;;;6.57;;
54937;SDS011;52756;52.826;6.214;2023-05-28T04:45:58;10.90;;;5.10;;
54937;SDS011;52756;52.826;6.214;2023-05-28T04:48:26;12.38;;;5.93;;
54937;SDS011;52756;52.826;6.214;2023-05-28T04:50:52;12.82;;;6.10;;
54937;SDS011;52756;52.826;6.214;2023-05-28T04:53:18;13.57;;;5.70;;
54937;SDS011;52756;52.826;6.214;2023-05-28T04:55:44;19.48;;;6.47;;
54937;SDS011;52756;52.826;6.214;2023-05-28T04:58:10;11.25;;;5.70;;
54937;SDS011;52756;52.826;6.214;2023-05-28T05:00:36;15.05;;;6.38;;
54937;SDS011;52756;52.826;6.214;2023-05-28T05:03:02;12.70;;;5.93;;
54937;SDS011;52756;52.826;6.214;2023-05-28T05:05:28;16.10;;;7.40;;
54937;SDS011;52756;52.826;6.214;2023-05-28T05:07:54;12.63;;;6.43;;
54937;SDS011;52756;52.826;6.214;2023-05-28T05:10:20;13.07;;;6.45;;
54937;SDS011;52756;52.826;6.214;2023-05-28T05:12:45;13.10;;;5.65;;
54937;SDS011;52756;52.826;6.214;2023-05-28T05:15:11;16.13;;;5.55;;
54937;SDS011;52756;52.826;6.214;2023-05-28T05:17:37;11.45;;;5.18;;
54937;SDS011;52756;52.826;6.214;2023-05-28T05:20:03;11.65;;;5.97;;
54937;SDS011;52756;52.826;6.214;2023-05-28T05:22:32;12.98;;;6.35;;
54937;SDS011;52756;52.826;6.214;2023-05-28T05:24:58;14.93;;;5.78;;
54937;SDS011;52756;52.826;6.214;2023-05-28T05:27:23;14.65;;;5.95;;
54937;SDS011;52756;52.826;6.214;2023-05-28T05:29:49;13.25;;;5.78;;
54937;SDS011;52756;52.826;6.214;2023-05-28T05:32:15;13.73;;;6.07;;
54937;SDS011;52756;52.826;6.214;2023-05-28T05:34:41;14.15;;;5.50;;
54937;SDS011;52756;52.826;6.214;2023-05-28T05:37:07;16.35;;;6.43;;
54937;SDS011;52756;52.826;6.214;2023-05-28T05:39:32;16.00;;;5.72;;
54937;SDS011;52756;52.826;6.214;2023-05-28T05:41:58;14.00;;;6.07;;
54937;SDS011;52756;52.826;6.214;2023-05-28T05:44:24;12.00;;;5.63;;
54937;SDS011;52756;52.826;6.214;2023-05-28T05:46:50;12.13;;;4.93;;
54937;SDS011;52756;52.826;6.214;2023-05-28T05:49:15;13.57;;;5.10;;
54937;SDS011;52756;52.826;6.214;2023-05-28T05:51:41;15.88;;;5.88;;
54937;SDS011;52756;52.826;6.214;2023-05-28T05:54:07;13.88;;;5.35;;
54937;SDS011;52756;52.826;6.214;2023-05-28T05:56:32;14.20;;;5.32;;
54937;SDS011;52756;52.826;6.214;2023-05-28T05:58:59;11.80;;;5.18;;
54937;SDS011;52756;52.826;6.214;2023-05-28T06:01:25;12.52;;;5.68;;
54937;SDS011;52756;52.826;6.214;2023-05-28T06:03:51;12.07;;;5.55;;
54937;SDS011;52756;52.826;6.214;2023-05-28T06:06:17;9.90;;;4.65;;
54937;SDS011;52756;52.826;6.214;2023-05-28T06:08:43;11.45;;;5.22;;
54937;SDS011;52756;52.826;6.214;2023-05-28T06:11:09;9.75;;;5.10;;
54937;SDS011;52756;52.826;6.214;2023-05-28T06:13:35;11.55;;;5.00;;
54937;SDS011;52756;52.826;6.214;2023-05-28T06:16:04;12.40;;;5.00;;
54937;SDS011;52756;52.826;6.214;2023-05-28T06:18:31;12.52;;;5.05;;
54937;SDS011;52756;52.826;6.214;2023-05-28T06:20:57;10.88;;;4.55;;
54937;SDS011;52756;52.826;6.214;2023-05-28T06:23:23;11.75;;;5.10;;
54937;SDS011;52756;52.826;6.214;2023-05-28T06:25:49;11.35;;;5.63;;
54937;SDS011;52756;52.826;6.214;2023-05-28T06:28:15;14.23;;;5.50;;
54937;SDS011;52756;52.826;6.214;2023-05-28T06:30:41;12.35;;;5.18;;
54937;SDS011;52756;52.826;6.214;2023-05-28T06:33:07;11.63;;;5.47;;
54937;SDS011;52756;52.826;6.214;2023-05-28T06:35:34;13.15;;;4.85;;
54937;SDS011;52756;52.826;6.214;2023-05-28T06:38:00;9.20;;;4.47;;
54937;SDS011;52756;52.826;6.214;2023-05-28T06:40:26;9.38;;;4.50;;
54937;SDS011;52756;52.826;6.214;2023-05-28T06:42:52;13.45;;;5.20;;
54937;SDS011;52756;52.826;6.214;2023-05-28T06:45:17;10.27;;;5.05;;
54937;SDS011;52756;52.826;6.214;2023-05-28T06:47:44;11.30;;;4.80;;
54937;SDS011;52756;52.826;6.214;2023-05-28T06:50:10;10.68;;;5.05;;
54937;SDS011;52756;52.826;6.214;2023-05-28T06:52:36;10.07;;;4.80;;
54937;SDS011;52756;52.826;6.214;2023-05-28T06:55:02;10.52;;;4.80;;
54937;SDS011;52756;52.826;6.214;2023-05-28T06:57:31;13.50;;;5.32;;
54937;SDS011;52756;52.826;6.214;2023-05-28T06:59:57;11.90;;;5.07;;
54937;SDS011;52756;52.826;6.214;2023-05-28T07:02:23;8.35;;;4.60;;
54937;SDS011;52756;52.826;6.214;2023-05-28T07:04:50;9.57;;;5.15;;
54937;SDS011;52756;52.826;6.214;2023-05-28T07:07:16;10.43;;;4.95;;
54937;SDS011;52756;52.826;6.214;2023-05-28T07:09:42;8.60;;;4.75;;
54937;SDS011;52756;52.826;6.214;2023-05-28T07:12:08;9.63;;;5.05;;
54937;SDS011;52756;52.826;6.214;2023-05-28T07:14:33;12.02;;;6.03;;
54937;SDS011;52756;52.826;6.214;2023-05-28T07:16:59;11.07;;;5.45;;
54937;SDS011;52756;52.826;6.214;2023-05-28T07:19:25;8.80;;;5.03;;
54937;SDS011;52756;52.826;6.214;2023-05-28T07:21:51;12.48;;;6.13;;
54937;SDS011;52756;52.826;6.214;2023-05-28T07:24:16;9.02;;;5.43;;
54937;SDS011;52756;52.826;6.214;2023-05-28T07:26:42;9.00;;;5.03;;
54937;SDS011;52756;52.826;6.214;2023-05-28T07:29:09;9.30;;;5.18;;
54937;SDS011;52756;52.826;6.214;2023-05-28T07:31:35;10.15;;;5.45;;
54937;SDS011;52756;52.826;6.214;2023-05-28T07:34:03;11.20;;;5.00;;
54937;SDS011;52756;52.826;6.214;2023-05-28T07:36:29;9.23;;;5.15;;
54937;SDS011;52756;52.826;6.214;2023-05-28T07:38:54;9.93;;;5.13;;
54937;SDS011;52756;52.826;6.214;2023-05-28T07:41:20;9.82;;;4.97;;
54937;SDS011;52756;52.826;6.214;2023-05-28T07:43:46;9.05;;;5.50;;
54937;SDS011;52756;52.826;6.214;2023-05-28T07:46:14;10.48;;;5.32;;
54937;SDS011;52756;52.826;6.214;2023-05-28T07:48:42;12.63;;;6.00;;
54937;SDS011;52756;52.826;6.214;2023-05-28T07:51:09;10.52;;;5.53;;
54937;SDS011;52756;52.826;6.214;2023-05-28T07:53:35;10.23;;;5.10;;
54937;SDS011;52756;52.826;6.214;2023-05-28T07:56:01;8.32;;;5.38;;
54937;SDS011;52756;52.826;6.214;2023-05-28T07:58:27;10.60;;;5.35;;
54937;SDS011;52756;52.826;6.214;2023-05-28T08:00:52;8.02;;;4.57;;
54937;SDS011;52756;52.826;6.214;2023-05-28T08:03:18;8.93;;;5.10;;
54937;SDS011;52756;52.826;6.214;2023-05-28T08:05:44;9.65;;;5.07;;
54937;SDS011;52756;52.826;6.214;2023-05-28T08:08:10;10.40;;;5.78;;
54937;SDS011;52756;52.826;6.214;2023-05-28T08:10:35;13.23;;;5.40;;
54937;SDS011;52756;52.826;6.214;2023-05-28T08:13:01;11.70;;;5.97;;
54937;SDS011;52756;52.826;6.214;2023-05-28T08:15:27;8.07;;;5.45;;
54937;SDS011;52756;52.826;6.214;2023-05-28T08:17:53;10.05;;;5.15;;
54937;SDS011;52756;52.826;6.214;2023-05-28T08:20:19;9.80;;;5.82;;
54937;SDS011;52756;52.826;6.214;2023-05-28T08:22:47;8.52;;;5.53;;
54937;SDS011;52756;52.826;6.214;2023-05-28T08:25:13;15.25;;;6.03;;
54937;SDS011;52756;52.826;6.214;2023-05-28T08:27:39;9.32;;;5.55;;
54937;SDS011;52756;52.826;6.214;2023-05-28T08:30:05;10.30;;;5.63;;
54937;SDS011;52756;52.826;6.214;2023-05-28T08:32:31;8.52;;;5.05;;
54937;SDS011;52756;52.826;6.214;2023-05-28T08:34:57;9.75;;;5.70;;
54937;SDS011;52756;52.826;6.214;2023-05-28T08:37:22;9.80;;;5.93;;
54937;SDS011;52756;52.826;6.214;2023-05-28T08:39:48;10.15;;;5.57;;
54937;SDS011;52756;52.826;6.214;2023-05-28T08:42:14;8.80;;;5.93;;
54937;SDS011;52756;52.826;6.214;2023-05-28T08:44:41;8.52;;;5.68;;
54937;SDS011;52756;52.826;6.214;2023-05-28T08:47:06;8.35;;;5.22;;
54937;SDS011;52756;52.826;6.214;2023-05-28T08:49:45;8.73;;;5.18;;
54937;SDS011;52756;52.826;6.214;2023-05-28T08:52:15;9.65;;;5.40;;
54937;SDS011;52756;52.826;6.214;2023-05-28T08:54:43;8.60;;;5.60;;
54937;SDS011;52756;52.826;6.214;2023-05-28T08:57:10;10.75;;;5.45;;
54937;SDS011;52756;52.826;6.214;2023-05-28T08:59:36;11.10;;;6.30;;
54937;SDS011;52756;52.826;6.214;2023-05-28T09:02:02;9.30;;;5.50;;
54937;SDS011;52756;52.826;6.214;2023-05-28T09:04:28;9.70;;;5.85;;
54937;SDS011;52756;52.826;6.214;2023-05-28T09:06:55;9.65;;;5.28;;
54937;SDS011;52756;52.826;6.214;2023-05-28T09:09:22;9.73;;;5.18;;
54937;SDS011;52756;52.826;6.214;2023-05-28T09:11:49;8.20;;;5.57;;
54937;SDS011;52756;52.826;6.214;2023-05-28T09:14:16;9.65;;;5.40;;
54937;SDS011;52756;52.826;6.214;2023-05-28T09:16:44;9.38;;;5.32;;
54937;SDS011;52756;52.826;6.214;2023-05-28T09:19:10;12.73;;;6.05;;
54937;SDS011;52756;52.826;6.214;2023-05-28T09:21:51;14.32;;;6.82;;
54937;SDS011;52756;52.826;6.214;2023-05-28T09:24:23;11.32;;;5.85;;
54937;SDS011;52756;52.826;6.214;2023-05-28T09:26:55;7.95;;;5.47;;
54937;SDS011;52756;52.826;6.214;2023-05-28T09:29:22;9.05;;;5.40;;
54937;SDS011;52756;52.826;6.214;2023-05-28T09:31:56;7.45;;;4.95;;
54937;SDS011;52756;52.826;6.214;2023-05-28T09:34:28;8.15;;;5.25;;
54937;SDS011;52756;52.826;6.214;2023-05-28T09:37:02;9.55;;;5.43;;
54937;SDS011;52756;52.826;6.214;2023-05-28T09:39:29;8.57;;;5.45;;
54937;SDS011;52756;52.826;6.214;2023-05-28T09:42:00;8.05;;;5.10;;
54937;SDS011;52756;52.826;6.214;2023-05-28T09:44:31;10.32;;;5.10;;
54937;SDS011;52756;52.826;6.214;2023-05-28T09:46:58;7.82;;;4.70;;
54937;SDS011;52756;52.826;6.214;2023-05-28T09:49:27;10.23;;;5.97;;
54937;SDS011;52756;52.826;6.214;2023-05-28T09:51:53;7.50;;;4.85;;
54937;SDS011;52756;52.826;6.214;2023-05-28T09:54:22;11.25;;;5.28;;
54937;SDS011;52756;52.826;6.214;2023-05-28T09:56:53;8.00;;;4.88;;
54937;SDS011;52756;52.826;6.214;2023-05-28T09:59:23;7.68;;;4.88;;
54937;SDS011;52756;52.826;6.214;2023-05-28T10:01:54;8.55;;;5.20;;
54937;SDS011;52756;52.826;6.214;2023-05-28T10:04:28;9.73;;;4.97;;
54937;SDS011;52756;52.826;6.214;2023-05-28T10:06:59;7.57;;;4.30;;
54937;SDS011;52756;52.826;6.214;2023-05-28T10:09:26;9.55;;;4.90;;
54937;SDS011;52756;52.826;6.214;2023-05-28T10:11:59;7.80;;;4.65;;
54937;SDS011;52756;52.826;6.214;2023-05-28T10:14:31;7.80;;;4.63;;
54937;SDS011;52756;52.826;6.214;2023-05-28T10:16:57;7.82;;;4.90;;
54937;SDS011;52756;52.826;6.214;2023-05-28T10:19:24;9.65;;;5.05;;
54937;SDS011;52756;52.826;6.214;2023-05-28T10:21:50;10.85;;;5.63;;
54937;SDS011;52756;52.826;6.214;2023-05-28T10:24:16;8.25;;;4.78;;
54937;SDS011;52756;52.826;6.214;2023-05-28T10:26:43;7.18;;;4.72;;
54937;SDS011;52756;52.826;6.214;2023-05-28T10:29:08;8.65;;;4.72;;
54937;SDS011;52756;52.826;6.214;2023-05-28T10:31:34;9.13;;;4.63;;
54937;SDS011;52756;52.826;6.214;2023-05-28T10:34:00;8.68;;;4.85;;
54937;SDS011;52756;52.826;6.214;2023-05-28T10:36:26;8.77;;;5.13;;
54937;SDS011;52756;52.826;6.214;2023-05-28T10:41:17;7.57;;;4.93;;
54937;SDS011;52756;52.826;6.214;2023-05-28T10:43:45;6.55;;;4.45;;
54937;SDS011;52756;52.826;6.214;2023-05-28T10:46:16;9.73;;;5.25;;
54937;SDS011;52756;52.826;6.214;2023-05-28T10:57:09;7.90;;;4.65;;
54937;SDS011;52756;52.826;6.214;2023-05-28T10:59:49;6.60;;;3.97;;
54937;SDS011;52756;52.826;6.214;2023-05-28T11:02:25;6.63;;;4.13;;
54937;SDS011;52756;52.826;6.214;2023-05-28T11:04:59;8.45;;;5.43;;
54937;SDS011;52756;52.826;6.214;2023-05-28T11:07:30;5.90;;;4.22;;
54937;SDS011;52756;52.826;6.214;2023-05-28T11:10:03;7.72;;;4.60;;
54937;SDS011;52756;52.826;6.214;2023-05-28T11:12:31;7.13;;;4.93;;
54937;SDS011;52756;52.826;6.214;2023-05-28T11:14:59;6.10;;;3.65;;
54937;SDS011;52756;52.826;6.214;2023-05-28T11:17:25;7.00;;;4.75;;
54937;SDS011;52756;52.826;6.214;2023-05-28T11:19:51;8.80;;;4.80;;
54937;SDS011;52756;52.826;6.214;2023-05-28T11:22:18;7.22;;;4.80;;
54937;SDS011;52756;52.826;6.214;2023-05-28T11:27:23;9.32;;;5.43;;
54937;SDS011;52756;52.826;6.214;2023-05-28T11:29:53;8.50;;;4.40;;
54937;SDS011;52756;52.826;6.214;2023-05-28T11:32:28;6.55;;;4.95;;
54937;SDS011;52756;52.826;6.214;2023-05-28T11:34:57;7.78;;;5.30;;
54937;SDS011;52756;52.826;6.214;2023-05-28T11:37:27;6.15;;;4.47;;
54937;SDS011;52756;52.826;6.214;2023-05-28T11:39:54;7.55;;;5.50;;
54937;SDS011;52756;52.826;6.214;2023-05-28T11:42:21;7.03;;;5.18;;
54937;SDS011;52756;52.826;6.214;2023-05-28T11:44:49;6.93;;;5.32;;
54937;SDS011;52756;52.826;6.214;2023-05-28T11:47:16;7.72;;;4.95;;
54937;SDS011;52756;52.826;6.214;2023-05-28T11:49:43;7.45;;;6.47;;
54937;SDS011;52756;52.826;6.214;2023-05-28T11:52:19;6.45;;;5.45;;
54937;SDS011;52756;52.826;6.214;2023-05-28T11:54:51;7.68;;;5.95;;
54937;SDS011;52756;52.826;6.214;2023-05-28T11:57:27;8.48;;;6.22;;
54937;SDS011;52756;52.826;6.214;2023-05-28T11:59:59;8.63;;;5.38;;
54937;SDS011;52756;52.826;6.214;2023-05-28T12:02:25;6.38;;;4.70;;
54937;SDS011;52756;52.826;6.214;2023-05-28T12:04:58;5.90;;;4.32;;
54937;SDS011;52756;52.826;6.214;2023-05-28T12:07:30;6.68;;;5.00;;
54937;SDS011;52756;52.826;6.214;2023-05-28T12:10:01;5.68;;;5.00;;
54937;SDS011;52756;52.826;6.214;2023-05-28T12:12:34;7.97;;;5.97;;
54937;SDS011;52756;52.826;6.214;2023-05-28T12:15:04;7.13;;;5.38;;
54937;SDS011;52756;52.826;6.214;2023-05-28T12:17:38;6.00;;;5.00;;
54937;SDS011;52756;52.826;6.214;2023-05-28T12:22:32;7.38;;;4.50;;
54937;SDS011;52756;52.826;6.214;2023-05-28T12:24:58;6.50;;;4.63;;
54937;SDS011;52756;52.826;6.214;2023-05-28T12:27:24;5.60;;;4.07;;
54937;SDS011;52756;52.826;6.214;2023-05-28T12:29:49;6.00;;;3.40;;
54937;SDS011;52756;52.826;6.214;2023-05-28T12:32:15;5.20;;;3.75;;
54937;SDS011;52756;52.826;6.214;2023-05-28T12:34:41;6.20;;;3.63;;
54937;SDS011;52756;52.826;6.214;2023-05-28T12:37:06;6.60;;;3.92;;
54937;SDS011;52756;52.826;6.214;2023-05-28T12:39:33;5.35;;;3.50;;
54937;SDS011;52756;52.826;6.214;2023-05-28T12:42:01;5.68;;;3.80;;
54937;SDS011;52756;52.826;6.214;2023-05-28T12:44:27;7.13;;;3.83;;
54937;SDS011;52756;52.826;6.214;2023-05-28T12:46:53;6.45;;;3.00;;
54937;SDS011;52756;52.826;6.214;2023-05-28T12:49:18;6.03;;;2.80;;
54937;SDS011;52756;52.826;6.214;2023-05-28T12:51:44;6.30;;;2.78;;
54937;SDS011;52756;52.826;6.214;2023-05-28T12:54:10;5.78;;;2.45;;
54937;SDS011;52756;52.826;6.214;2023-05-28T12:56:35;6.18;;;2.55;;
54937;SDS011;52756;52.826;6.214;2023-05-28T12:59:01;4.97;;;2.63;;
54937;SDS011;52756;52.826;6.214;2023-05-28T13:01:27;6.40;;;2.50;;
54937;SDS011;52756;52.826;6.214;2023-05-28T13:03:53;7.13;;;2.47;;
54937;SDS011;52756;52.826;6.214;2023-05-28T13:06:18;6.03;;;2.85;;
54937;SDS011;52756;52.826;6.214;2023-05-28T13:08:44;6.65;;;2.60;;
54937;SDS011;52756;52.826;6.214;2023-05-28T13:11:10;6.22;;;2.55;;
54937;SDS011;52756;52.826;6.214;2023-05-28T13:13:37;4.57;;;2.38;;
54937;SDS011;52756;52.826;6.214;2023-05-28T13:16:03;7.05;;;2.38;;
54937;SDS011;52756;52.826;6.214;2023-05-28T13:18:30;5.45;;;2.25;;
54937;SDS011;52756;52.826;6.214;2023-05-28T13:20:55;8.00;;;2.72;;
54937;SDS011;52756;52.826;6.214;2023-05-28T13:23:21;7.25;;;2.50;;
54937;SDS011;52756;52.826;6.214;2023-05-28T13:25:47;5.25;;;2.47;;
54937;SDS011;52756;52.826;6.214;2023-05-28T13:28:12;5.53;;;2.60;;
54937;SDS011;52756;52.826;6.214;2023-05-28T13:30:38;5.80;;;2.75;;
54937;SDS011;52756;52.826;6.214;2023-05-28T13:33:04;6.88;;;3.30;;
54937;SDS011;52756;52.826;6.214;2023-05-28T13:35:30;7.32;;;2.90;;
54937;SDS011;52756;52.826;6.214;2023-05-28T13:37:55;7.57;;;3.15;;
54937;SDS011;52756;52.826;6.214;2023-05-28T13:40:22;7.95;;;3.35;;
54937;SDS011;52756;52.826;6.214;2023-05-28T13:42:49;9.07;;;3.55;;
54937;SDS011;52756;52.826;6.214;2023-05-28T13:45:15;11.30;;;4.15;;
54937;SDS011;52756;52.826;6.214;2023-05-28T13:47:41;8.55;;;3.60;;
54937;SDS011;52756;52.826;6.214;2023-05-28T13:50:07;6.28;;;3.33;;
54937;SDS011;52756;52.826;6.214;2023-05-28T13:52:34;8.30;;;3.15;;
54937;SDS011;52756;52.826;6.214;2023-05-28T13:55:00;11.63;;;3.78;;
54937;SDS011;52756;52.826;6.214;2023-05-28T13:57:25;9.18;;;3.83;;
54937;SDS011;52756;52.826;6.214;2023-05-28T13:59:51;8.55;;;3.50;;
54937;SDS011;52756;52.826;6.214;2023-05-28T14:02:17;11.32;;;3.65;;
54937;SDS011;52756;52.826;6.214;2023-05-28T14:04:43;11.48;;;3.72;;
54937;SDS011;52756;52.826;6.214;2023-05-28T14:07:09;8.95;;;3.47;;
54937;SDS011;52756;52.826;6.214;2023-05-28T14:09:35;7.57;;;3.08;;
54937;SDS011;52756;52.826;6.214;2023-05-28T14:12:02;11.27;;;4.65;;
54937;SDS011;52756;52.826;6.214;2023-05-28T14:14:28;8.80;;;3.50;;
54937;SDS011;52756;52.826;6.214;2023-05-28T14:16:54;10.13;;;3.58;;
54937;SDS011;52756;52.826;6.214;2023-05-28T14:19:19;9.45;;;3.63;;
54937;SDS011;52756;52.826;6.214;2023-05-28T14:21:46;7.82;;;3.15;;
54937;SDS011;52756;52.826;6.214;2023-05-28T14:24:11;9.95;;;3.50;;
54937;SDS011;52756;52.826;6.214;2023-05-28T14:26:37;8.02;;;4.30;;
54937;SDS011;52756;52.826;6.214;2023-05-28T14:29:03;9.18;;;3.53;;
54937;SDS011;52756;52.826;6.214;2023-05-28T14:31:29;6.05;;;3.20;;
54937;SDS011;52756;52.826;6.214;2023-05-28T14:33:55;7.90;;;3.10;;
54937;SDS011;52756;52.826;6.214;2023-05-28T14:36:21;7.65;;;3.40;;
54937;SDS011;52756;52.826;6.214;2023-05-28T14:38:46;8.35;;;2.72;;
54937;SDS011;52756;52.826;6.214;2023-05-28T14:41:12;6.40;;;3.08;;
54937;SDS011;52756;52.826;6.214;2023-05-28T14:43:38;8.85;;;3.67;;
54937;SDS011;52756;52.826;6.214;2023-05-28T14:46:03;6.80;;;3.03;;
54937;SDS011;52756;52.826;6.214;2023-05-28T14:48:30;11.20;;;4.75;;
54937;SDS011;52756;52.826;6.214;2023-05-28T14:50:55;6.22;;;3.13;;
54937;SDS011;52756;52.826;6.214;2023-05-28T14:53:22;8.40;;;4.53;;